Time;durP1;ratioP1;P1;durP2;ratioP2;P2;SDS_P1;SDS_P2;PMS_P1;PMS_P2;Temp;Humidity;BMP_temperature;BMP_pressure;BME280_temperature;BME280_humidity;BME280_pressure;Samples;Min_cycle;Max_cycle;Signal;HPM_P1;HPM_P2
2022/03/01 00:00:37;;;;;;;17.20;11.32;;;;;;;2.17;100.00;101068.22;5012484;28;20121;-75
2022/03/01 00:03:02;;;;;;;23.92;17.13;;;;;;;2.40;100.00;101067.06;4993061;28;20054;-74
2022/03/01 00:05:28;;;;;;;18.00;13.13;;;;;;;2.00;100.00;100994.25;4992776;28;20033;-73
2022/03/01 00:07:53;;;;;;;12.43;9.27;;;;;;;2.37;100.00;101031.03;5004986;28;20038;-73
2022/03/01 00:10:18;;;;;;;11.85;8.15;;;;;;;2.46;100.00;101069.72;5013353;28;20026;-73
2022/03/01 00:12:44;;;;;;;11.00;7.72;;;;;;;2.32;100.00;101060.16;5045072;28;20507;-71
2022/03/01 00:15:09;;;;;;;10.77;7.97;;;;;;;2.28;100.00;101051.75;5000108;28;20030;-73
2022/03/01 00:17:35;;;;;;;10.68;7.85;;;;;;;2.40;100.00;101059.53;4993863;28;20413;-73
2022/03/01 00:20:02;;;;;;;11.23;7.90;;;;;;;2.34;100.00;101026.78;4993315;28;20088;-74
2022/03/01 00:22:27;;;;;;;9.00;7.40;;;;;;;2.40;100.00;101052.00;4992195;28;20034;-73
2022/03/01 00:24:52;;;;;;;10.43;8.18;;;;;;;2.14;100.00;101017.97;4993657;28;20424;-73
2022/03/01 00:27:18;;;;;;;11.85;8.55;;;;;;;2.67;100.00;101047.56;4993454;28;20089;-74
2022/03/01 00:29:43;;;;;;;10.70;8.05;;;;;;;2.63;100.00;101039.97;4993120;28;20096;-74
2022/03/01 00:32:10;;;;;;;13.85;9.95;;;;;;;2.03;100.00;100998.50;4993479;28;20068;-74
2022/03/01 00:34:36;;;;;;;14.05;9.35;;;;;;;2.52;100.00;101032.22;4992186;28;20458;-74
2022/03/01 00:37:01;;;;;;;10.57;7.93;;;;;;;2.41;100.00;101030.28;4993139;28;20061;-74
2022/03/01 00:39:27;;;;;;;11.30;7.68;;;;;;;2.65;100.00;101028.31;4993269;28;20040;-74
2022/03/01 00:41:52;;;;;;;9.45;7.47;;;;;;;2.73;100.00;101036.84;4993083;28;20125;-73
2022/03/01 00:44:18;;;;;;;9.35;7.40;;;;;;;2.81;100.00;101019.41;4992712;28;20038;-70
2022/03/01 00:46:43;;;;;;;9.57;7.35;;;;;;;2.35;100.00;100959.91;5008456;28;20404;-73
2022/03/01 00:49:09;;;;;;;8.52;6.45;;;;;;;2.62;100.00;101025.72;4993336;28;20049;-73
2022/03/01 00:51:35;;;;;;;8.55;6.38;;;;;;;2.74;100.00;101017.59;4993000;28;20034;-73
2022/03/01 00:54:00;;;;;;;9.20;6.75;;;;;;;2.72;100.00;101022.59;4993098;28;20105;-73
2022/03/01 00:56:25;;;;;;;10.23;7.28;;;;;;;2.39;100.00;100989.28;4993110;28;20065;-74
2022/03/01 00:58:51;;;;;;;9.18;7.20;;;;;;;2.56;100.00;100998.84;4992623;28;20092;-70
2022/03/01 01:01:35;;;;;;;10.95;7.57;;;;;;;2.59;100.00;101026.50;5261206;23;20042;-68
2022/03/01 01:04:01;;;;;;;8.13;6.05;;;;;;;2.33;100.00;100956.53;4314748;28;10000705;-73
2022/03/01 01:06:26;;;;;;;8.43;6.28;;;;;;;2.77;100.00;101022.69;5012432;28;20068;-73
2022/03/01 01:08:52;;;;;;;8.32;6.40;;;;;;;2.56;100.00;100987.94;5011932;28;20026;-72
2022/03/01 01:11:17;;;;;;;8.80;6.43;;;;;;;2.58;100.00;101018.94;5012263;28;20458;-68
2022/03/01 01:13:43;;;;;;;10.80;6.35;;;;;;;2.42;100.00;100977.63;5012510;28;20030;-74
2022/03/01 01:16:08;;;;;;;8.60;6.50;;;;;;;2.59;100.00;101013.13;5012064;28;20028;-73
2022/03/01 01:18:36;;;;;;;8.25;6.05;;;;;;;2.27;100.00;100943.88;5012323;28;20471;-73
2022/03/01 01:21:01;;;;;;;6.85;5.72;;;;;;;2.74;100.00;101013.41;5012410;28;20587;-74
2022/03/01 01:23:27;;;;;;;8.45;5.88;;;;;;;2.48;100.00;100961.84;5011957;28;20061;-73
2022/03/01 01:25:52;;;;;;;6.70;5.65;;;;;;;2.85;100.00;101011.13;5011147;28;20029;-73
2022/03/01 01:28:18;;;;;;;7.45;5.80;;;;;;;2.65;100.00;100998.19;5012305;28;20030;-74
2022/03/01 01:30:43;;;;;;;7.10;5.50;;;;;;;2.71;100.00;101008.34;5011192;28;20034;-74
2022/03/01 01:33:09;;;;;;;7.30;5.75;;;;;;;2.77;100.00;101000.94;5012100;28;20037;-74
2022/03/01 01:35:35;;;;;;;6.32;5.60;;;;;;;2.74;100.00;100958.19;5012001;28;20480;-73
2022/03/01 01:38:01;;;;;;;7.22;5.70;;;;;;;2.76;100.00;101001.75;5011501;28;20116;-73
2022/03/01 01:40:29;;;;;;;7.15;5.93;;;;;;;2.74;100.00;100953.19;5011839;28;20104;-73
2022/03/01 01:42:56;;;;;;;8.20;6.10;;;;;;;2.49;100.00;100918.41;5012101;28;20033;-72
2022/03/01 01:45:22;;;;;;;8.35;6.40;;;;;;;2.52;100.00;100946.91;5012340;28;20072;-73
2022/03/01 01:47:49;;;;;;;7.00;5.60;;;;;;;2.30;100.00;100949.78;5003986;28;20092;-73
2022/03/01 01:50:16;;;;;;;7.90;5.57;;;;;;;2.59;100.00;100978.00;4992082;28;20088;-73
2022/03/01 01:52:45;;;;;;;6.95;5.75;;;;;;;2.40;100.00;100991.81;4991156;28;20034;-73
2022/03/01 01:55:11;;;;;;;8.45;6.28;;;;;;;2.32;100.00;100988.28;4992161;28;20045;-72
2022/03/01 01:57:36;;;;;;;7.53;6.03;;;;;;;2.52;100.00;100979.50;4992223;28;20030;-73
2022/03/01 02:00:07;;;;;;;8.25;6.15;;;;;;;2.12;100.00;100916.78;4992251;28;20022;-73
2022/03/01 02:02:32;;;;;;;8.15;5.97;;;;;;;2.38;100.00;100978.38;4999816;28;20057;-72
2022/03/01 02:04:59;;;;;;;7.95;6.10;;;;;;;2.40;100.00;100979.25;5011583;28;20034;-73
2022/03/01 02:07:25;;;;;;;7.78;6.25;;;;;;;2.51;100.00;100971.97;5012280;28;20466;-73
2022/03/01 02:09:51;;;;;;;6.88;5.65;;;;;;;2.32;100.00;100934.75;5011841;28;20025;-73
2022/03/01 02:12:16;;;;;;;7.57;6.13;;;;;;;2.21;100.00;100928.69;5011916;28;21369;-74
2022/03/01 02:14:42;;;;;;;8.77;5.93;;;;;;;2.22;100.00;100951.28;5010516;28;20121;-73
2022/03/01 02:17:10;;;;;;;7.80;5.95;;;;;;;2.18;100.00;100933.66;5011500;28;20498;-70
2022/03/01 02:19:36;;;;;;;7.45;5.88;;;;;;;2.10;100.00;100972.75;5011942;28;20033;-74
2022/03/01 02:22:02;;;;;;;6.55;5.72;;;;;;;2.33;100.00;100967.41;5011835;28;20030;-74
2022/03/01 02:24:30;;;;;;;7.20;5.75;;;;;;;2.26;100.00;100932.13;4998651;28;20113;-72
2022/03/01 02:26:56;;;;;;;7.07;5.80;;;;;;;2.44;100.00;100960.09;4991228;28;20041;-72
2022/03/01 02:29:22;;;;;;;8.15;6.00;;;;;;;2.30;100.00;100908.78;4992113;28;20105;-73
2022/03/01 02:31:49;;;;;;;7.13;5.65;;;;;;;2.45;100.00;100949.25;4991846;28;20476;-73
2022/03/01 02:34:14;;;;;;;7.65;5.75;;;;;;;2.22;100.00;100905.31;4992073;28;20037;-73
2022/03/01 02:36:40;;;;;;;9.23;6.10;;;;;;;2.24;100.00;100913.72;4992032;28;20031;-73
2022/03/01 02:39:05;;;;;;;6.50;5.65;;;;;;;2.26;100.00;100922.09;4991929;28;20031;-73
2022/03/01 02:41:31;;;;;;;7.95;5.53;;;;;;;2.63;100.00;100963.00;4992279;28;20512;-73
2022/03/01 02:43:56;;;;;;;7.00;5.72;;;;;;;2.51;100.00;100936.84;4995545;28;20117;-71
2022/03/01 02:46:23;;;;;;;7.30;6.22;;;;;;;2.40;100.00;100930.75;4995318;28;20030;-73
2022/03/01 02:48:48;;;;;;;6.70;5.50;;;;;;;2.53;100.00;100953.63;4995794;28;20038;-72
2022/03/01 02:51:13;;;;;;;6.80;5.70;;;;;;;2.64;100.00;100951.31;4995098;28;20130;-71
2022/03/01 02:53:39;;;;;;;7.13;6.07;;;;;;;2.41;100.00;100924.91;4995090;28;20041;-71
2022/03/01 02:56:05;;;;;;;7.82;6.07;;;;;;;2.24;100.00;100914.53;5007634;28;20057;-71
2022/03/01 02:58:31;;;;;;;7.40;5.70;;;;;;;2.33;100.00;100901.34;5013661;28;20076;-69
2022/03/01 03:00:56;;;;;;;6.78;5.57;;;;;;;2.51;100.00;100941.84;4994730;28;20419;-72
2022/03/01 03:03:21;;;;;;;6.60;5.63;;;;;;;2.48;100.00;100924.22;5011585;28;20050;-71
2022/03/01 03:05:47;;;;;;;7.38;6.00;;;;;;;2.63;100.00;100950.44;5014432;28;20037;-72
2022/03/01 03:08:12;;;;;;;7.53;6.00;;;;;;;2.33;100.00;100898.84;5013162;28;20709;-72
2022/03/01 03:10:38;;;;;;;8.70;6.30;;;;;;;2.52;100.00;100951.06;5013227;28;20071;-72
2022/03/01 03:13:04;;;;;;;8.00;6.15;;;;;;;2.59;100.00;100947.88;5014581;28;20041;-73
2022/03/01 03:15:31;;;;;;;9.45;6.05;;;;;;;2.60;100.00;100947.03;5014394;28;20076;-72
2022/03/01 03:17:57;;;;;;;7.63;6.35;;;;;;;2.58;100.00;100951.19;5014137;28;20030;-73
2022/03/01 03:20:23;;;;;;;8.05;6.80;;;;;;;2.50;100.00;100928.44;5014361;28;20038;-73
2022/03/01 03:22:50;;;;;;;8.05;6.28;;;;;;;2.22;100.00;100901.13;5014205;28;20041;-72
2022/03/01 03:25:15;;;;;;;8.43;6.45;;;;;;;2.37;100.00;100921.50;5014274;28;20041;-72
2022/03/01 03:27:41;;;;;;;9.45;6.50;;;;;;;2.48;100.00;100945.13;5013007;28;20033;-73
2022/03/01 03:30:08;;;;;;;8.63;6.32;;;;;;;2.18;100.00;100908.56;5013952;28;20081;-72
2022/03/01 03:32:34;;;;;;;8.45;6.82;;;;;;;2.23;100.00;100890.28;5013736;28;20030;-70
2022/03/01 03:35:00;;;;;;;8.15;6.50;;;;;;;2.29;100.00;100907.97;5014357;28;20053;-73
2022/03/01 03:37:25;;;;;;;8.05;6.55;;;;;;;2.38;100.00;100943.25;5014009;28;20088;-71
2022/03/01 03:39:51;;;;;;;8.27;6.80;;;;;;;2.24;100.00;100917.03;5014142;28;20480;-73
2022/03/01 03:42:16;;;;;;;8.77;7.00;;;;;;;2.45;100.00;100939.22;5013680;28;20029;-72
2022/03/01 03:44:42;;;;;;;9.13;7.25;;;;;;;2.29;100.00;100948.09;5013440;28;20056;-72
2022/03/01 03:47:09;;;;;;;9.23;7.60;;;;;;;2.30;100.00;100948.94;5013679;28;20484;-71
2022/03/01 03:49:35;;;;;;;8.60;6.68;;;;;;;2.29;100.00;100948.09;5013360;28;20038;-73
2022/03/01 03:52:01;;;;;;;7.78;6.60;;;;;;;2.22;100.00;100917.84;5008395;28;20034;-73
2022/03/01 03:54:27;;;;;;;9.02;7.07;;;;;;;2.34;100.00;100940.66;5012516;28;20491;-72
2022/03/01 03:56:52;;;;;;;9.13;7.18;;;;;;;2.21;100.00;100923.66;5012766;28;20034;-72
2022/03/01 03:59:17;;;;;;;11.00;7.85;;;;;;;2.10;100.00;100897.53;5013001;28;20116;-73
2022/03/01 04:01:43;;;;;;;9.68;7.60;;;;;;;2.09;100.00;100888.31;5012148;28;20495;-70
2022/03/01 04:04:09;;;;;;;10.50;8.20;;;;;;;2.03;100.00;100888.19;5013503;28;20048;-74
2022/03/01 04:06:36;;;;;;;8.57;6.80;;;;;;;2.07;100.00;100918.38;5013520;28;20033;-74
2022/03/01 04:09:03;;;;;;;10.18;8.00;;;;;;;2.06;100.00;100904.13;5013517;28;20167;-74
2022/03/01 04:11:28;;;;;;;13.35;9.00;;;;;;;2.17;100.00;100939.47;5013339;28;20041;-73
2022/03/01 04:13:54;;;;;;;9.88;8.25;;;;;;;2.05;100.00;100930.03;5013105;28;20034;-72
2022/03/01 04:16:19;;;;;;;9.10;7.28;;;;;;;2.06;100.00;100938.41;5012923;28;20026;-73
2022/03/01 04:18:44;;;;;;;9.65;7.75;;;;;;;2.00;100.00;100904.00;5013384;28;20030;-72
2022/03/01 04:21:10;;;;;;;9.75;7.63;;;;;;;2.03;100.00;100903.22;5013348;28;20120;-75
2022/03/01 04:23:37;;;;;;;10.68;7.85;;;;;;;2.07;100.00;100904.97;5013440;28;20034;-75
2022/03/01 04:26:03;;;;;;;9.00;7.10;;;;;;;2.27;100.00;100946.38;5013231;28;20480;-75
2022/03/01 04:28:29;;;;;;;10.68;7.60;;;;;;;2.28;100.00;100941.38;5013177;28;20483;-74
2022/03/01 04:30:54;;;;;;;9.68;7.20;;;;;;;2.05;100.00;100906.59;5012971;28;20107;-74
2022/03/01 04:33:20;;;;;;;9.55;7.07;;;;;;;2.38;100.00;100927.34;5012714;28;20092;-72
2022/03/01 04:35:45;;;;;;;10.05;7.32;;;;;;;2.17;100.00;100952.00;5013091;28;20029;-74
2022/03/01 04:38:11;;;;;;;10.57;7.57;;;;;;;2.33;100.00;100954.03;5005814;28;20518;-73
2022/03/01 04:40:37;;;;;;;9.98;7.88;;;;;;;1.86;100.00;100892.84;4992523;28;20036;-67
2022/03/01 04:43:03;;;;;;;10.27;7.68;;;;;;;2.13;100.00;100917.66;4992557;28;20121;-72
2022/03/01 04:45:28;;;;;;;10.65;8.57;;;;;;;2.25;100.00;100936.31;4990334;28;20353;-70
2022/03/01 04:47:54;;;;;;;12.27;9.18;;;;;;;1.76;100.00;100924.34;4992428;28;20046;-71
2022/03/01 04:50:19;;;;;;;12.90;9.35;;;;;;;1.97;100.00;100946.56;4992476;28;20502;-71
2022/03/01 04:52:45;;;;;;;12.20;9.00;;;;;;;2.21;100.00;100957.13;4992230;28;20092;-72
2022/03/01 04:55:10;;;;;;;11.57;9.40;;;;;;;2.08;100.00;100962.66;5012481;28;20034;-72
2022/03/01 04:57:36;;;;;;;10.82;8.50;;;;;;;2.20;100.00;100975.47;5012320;28;20022;-73
2022/03/01 05:00:03;;;;;;;15.13;10.02;;;;;;;1.87;100.00;100938.78;5012198;28;20037;-74
2022/03/01 05:02:28;;;;;;;13.73;9.90;;;;;;;2.19;100.00;100965.41;4995431;28;20416;-75
2022/03/01 05:04:53;;;;;;;14.25;9.90;;;;;;;2.04;100.00;100930.00;5011435;28;20092;-73
2022/03/01 05:07:19;;;;;;;17.75;11.98;;;;;;;2.05;100.00;100957.59;4993445;28;20121;-74
2022/03/01 05:09:44;;;;;;;19.08;14.00;;;;;;;2.06;100.00;100978.50;4991448;28;20022;-73
2022/03/01 05:12:10;;;;;;;13.15;10.02;;;;;;;1.94;100.00;100959.00;4992149;28;20113;-74
2022/03/01 05:14:35;;;;;;;14.73;10.55;;;;;;;1.97;100.00;100971.63;4992247;28;20029;-73
2022/03/01 05:17:01;;;;;;;22.25;14.50;;;;;;;2.02;100.00;100950.00;4992132;28;20121;-72
2022/03/01 05:19:26;;;;;;;14.38;10.43;;;;;;;1.94;100.00;100933.94;4992201;28;20034;-74
2022/03/01 05:21:51;;;;;;;17.88;11.63;;;;;;;2.06;100.00;100976.00;4992666;28;20412;-75
2022/03/01 05:24:17;;;;;;;24.23;15.18;;;;;;;2.20;100.00;100962.94;4992351;28;20039;-71
2022/03/01 05:26:44;;;;;;;13.52;9.50;;;;;;;2.31;100.00;100971.56;4991445;28;20028;-73
2022/03/01 05:29:10;;;;;;;12.40;9.32;;;;;;;2.33;100.00;100981.63;4992168;28;20038;-72
2022/03/01 05:31:35;;;;;;;23.85;13.48;;;;;;;2.04;100.00;100942.53;4991990;28;20134;-73
2022/03/01 05:34:01;;;;;;;20.80;12.43;;;;;;;2.12;100.00;100956.91;4992081;28;20129;-73
2022/03/01 05:36:26;;;;;;;14.13;10.38;;;;;;;2.18;100.00;100954.53;4992355;28;20030;-72
2022/03/01 05:38:52;;;;;;;19.58;11.68;;;;;;;2.31;100.00;100996.63;4992030;28;20061;-72
2022/03/01 05:41:19;;;;;;;20.77;13.30;;;;;;;2.30;100.00;100946.41;4990157;28;20022;-70
2022/03/01 05:43:45;;;;;;;19.05;12.70;;;;;;;2.55;100.00;100987.13;4991445;28;20070;-71
2022/03/01 05:46:10;;;;;;;18.38;12.90;;;;;;;2.67;100.00;100984.84;4991713;28;20062;-72
2022/03/01 05:48:36;;;;;;;21.38;13.52;;;;;;;5.29;100.00;100967.75;4993199;28;20022;-69
2022/03/01 05:51:03;;;;;;;22.65;13.63;;;;;;;3.06;100.00;100992.31;5011609;28;20484;-72
2022/03/01 05:53:28;;;;;;;21.15;13.93;;;;;;;3.15;100.00;100997.47;5010615;28;20037;-71
2022/03/01 05:55:54;;;;;;;15.77;11.75;;;;;;;2.47;100.00;100962.69;5009353;28;20030;-71
2022/03/01 05:58:19;;;;;;;20.35;14.82;;;;;;;3.11;100.00;100997.41;5010262;28;20103;-72
2022/03/01 06:00:45;;;;;;;17.48;12.98;;;;;;;2.76;100.00;100989.19;5010530;28;20026;-71
2022/03/01 06:03:10;;;;;;;15.27;10.90;;;;;;;2.70;100.00;100976.53;5009735;28;20551;-71
2022/03/01 06:05:36;;;;;;;17.20;12.85;;;;;;;2.85;100.00;100998.56;5010801;28;20416;-70
2022/03/01 06:08:02;;;;;;;16.40;12.43;;;;;;;2.92;100.00;100986.16;5010415;28;20057;-70
2022/03/01 06:10:27;;;;;;;22.80;15.50;;;;;;;2.90;100.00;100970.22;5010714;28;20505;-70
2022/03/01 06:12:53;;;;;;;36.55;25.38;;;;;;;3.56;100.00;101005.75;5010746;28;20030;-70
2022/03/01 06:15:18;;;;;;;29.90;22.30;;;;;;;3.39;100.00;100977.81;5010459;28;20463;-71
2022/03/01 06:17:44;;;;;;;28.77;19.73;;;;;;;3.87;100.00;101009.59;5013169;28;20061;-72
2022/03/01 06:20:10;;;;;;;26.63;18.73;;;;;;;3.80;100.00;101025.41;5014937;28;20030;-71
2022/03/01 06:22:37;;;;;;;28.92;21.65;;;;;;;3.66;100.00;101021.81;5015017;28;20141;-72
2022/03/01 06:25:04;;;;;;;28.55;20.48;;;;;;;3.34;100.00;100966.00;5012120;28;20034;-71
2022/03/01 06:27:29;;;;;;;35.67;22.83;;;;;;;3.51;100.00;100979.69;4995416;28;20027;-72
2022/03/01 06:29:55;;;;;;;23.73;18.52;;;;;;;3.50;100.00;101031.63;5006454;28;20033;-71
2022/03/01 06:32:21;;;;;;;18.17;14.10;;;;;;;3.34;100.00;101029.66;5013727;28;20040;-72
2022/03/01 06:34:47;;;;;;;14.75;11.35;;;;;;;3.57;100.00;101026.69;4998520;28;20026;-71
2022/03/01 06:37:15;;;;;;;23.33;17.85;;;;;;;3.37;100.00;101023.81;4995170;28;20092;-71
2022/03/01 06:39:42;;;;;;;25.02;17.77;;;;;;;3.78;100.00;101027.91;4994873;28;20108;-71
2022/03/01 06:42:08;;;;;;;33.05;21.67;;;;;;;4.80;100.00;101031.06;4994921;28;20037;-71
2022/03/01 06:44:34;;;;;;;27.98;18.73;;;;;;;5.06;100.00;101022.13;4994250;28;20038;-71
2022/03/01 06:47:00;;;;;;;22.80;15.80;;;;;;;3.52;100.00;101029.13;4994867;28;20173;-71
2022/03/01 06:49:25;;;;;;;29.95;20.17;;;;;;;4.00;100.00;101024.06;5007833;28;20049;-71
2022/03/01 06:51:51;;;;;;;16.85;13.65;;;;;;;4.25;100.00;101034.50;5014218;28;20119;-71
2022/03/01 06:54:16;;;;;;;14.05;11.45;;;;;;;6.24;100.00;101023.19;5014218;28;20407;-72
2022/03/01 06:56:42;;;;;;;14.85;11.07;;;;;;;5.12;100.00;101001.19;5014470;28;20093;-72
2022/03/01 06:59:07;;;;;;;16.85;11.18;;;;;;;5.63;100.00;100985.69;5014277;28;20030;-71
2022/03/01 07:01:32;;;;;;;13.93;10.43;;;;;;;4.82;100.00;100990.75;5013747;28;20539;-70
2022/03/01 07:03:58;;;;;;;11.20;9.18;;;;;;;5.17;100.00;100990.31;4998968;28;20047;-72
2022/03/01 07:06:23;;;;;;;13.23;9.57;;;;;;;6.22;100.00;101029.91;4994263;28;20036;-71
2022/03/01 07:08:49;;;;;;;12.23;8.65;;;;;;;5.62;100.00;101012.59;4994210;28;20431;-71
2022/03/01 07:11:15;;;;;;;11.38;8.63;;;;;;;5.12;100.00;101041.50;4994302;28;20034;-71
2022/03/01 07:13:40;;;;;;;11.63;9.32;;;;;;;5.41;100.00;101029.22;4994054;28;20515;-69
2022/03/01 07:16:07;;;;;;;10.27;8.82;;;;;;;5.25;100.00;101035.75;4993832;28;20042;-71
2022/03/01 07:18:32;;;;;;;11.77;8.88;;;;;;;6.17;100.00;101031.56;4994574;28;20049;-71
2022/03/01 07:20:58;;;;;;;13.73;9.38;;;;;;;4.95;100.00;101026.19;4997238;28;20022;-72
2022/03/01 07:23:24;;;;;;;11.15;8.65;;;;;;;5.54;100.00;101005.78;5013227;28;20076;-73
2022/03/01 07:25:49;;;;;;;11.75;9.20;;;;;;;5.38;100.00;101040.13;5013675;28;20049;-71
2022/03/01 07:28:14;;;;;;;11.88;8.40;;;;;;;5.75;100.00;101024.47;5011094;28;20068;-71
2022/03/01 07:30:40;;;;;;;13.40;8.90;;;;;;;5.53;100.00;101040.25;5013128;28;20080;-71
2022/03/01 07:33:05;;;;;;;9.57;8.43;;;;;;;5.25;100.00;101043.31;5013530;28;20494;-70
2022/03/01 07:35:31;;;;;;;11.00;8.85;;;;;;;5.49;100.00;101037.66;5007020;28;20540;-71
2022/03/01 07:37:57;;;;;;;12.75;9.50;;;;;;;5.10;100.00;101023.84;4993702;28;20062;-70
2022/03/01 07:40:25;;;;;;;11.25;9.23;;;;;;;4.94;100.00;101049.69;4993715;28;20101;-71
2022/03/01 07:42:51;;;;;;;11.55;8.95;;;;;;;4.75;100.00;101050.31;4993521;28;20037;-71
2022/03/01 07:45:17;;;;;;;10.93;9.15;;;;;;;4.80;100.00;101055.38;4992345;28;20038;-70
2022/03/01 07:47:43;;;;;;;11.38;9.18;;;;;;;4.68;100.00;101051.03;4993954;28;20036;-70
2022/03/01 07:50:09;;;;;;;13.00;9.38;;;;;;;4.60;100.00;101047.56;4993656;28;20030;-72
2022/03/01 07:52:35;;;;;;;11.18;8.98;;;;;;;5.14;100.00;101053.31;5008563;28;20062;-70
2022/03/01 07:55:00;;;;;;;14.75;9.95;;;;;;;4.72;100.00;101037.66;4993035;28;20481;-71
2022/03/01 07:57:26;;;;;;;13.68;9.55;;;;;;;4.50;100.00;101042.41;4993273;28;20026;-71
2022/03/01 07:59:51;;;;;;;15.52;10.50;;;;;;;4.43;100.00;101066.66;5007093;28;20113;-71
2022/03/01 08:02:17;;;;;;;11.52;9.55;;;;;;;4.01;100.00;101030.78;5013132;28;20076;-71
2022/03/01 08:04:42;;;;;;;12.50;9.88;;;;;;;4.49;100.00;101064.22;5013201;28;20114;-70
2022/03/01 08:07:09;;;;;;;13.63;9.50;;;;;;;4.15;100.00;101034.34;5012461;28;20030;-71
2022/03/01 08:09:36;;;;;;;13.48;9.80;;;;;;;4.28;100.00;101027.00;5012645;28;20057;-72
2022/03/01 08:12:02;;;;;;;12.43;10.13;;;;;;;4.39;100.00;101049.81;5011546;28;20034;-71
2022/03/01 08:14:30;;;;;;;12.05;9.52;;;;;;;4.48;100.00;101029.78;5012644;28;20057;-71
2022/03/01 08:16:56;;;;;;;12.48;9.73;;;;;;;4.17;100.00;101070.44;5012314;28;20124;-71
2022/03/01 08:19:22;;;;;;;12.88;9.82;;;;;;;4.37;100.00;101074.13;5012126;28;20085;-71
2022/03/01 08:21:47;;;;;;;12.20;9.75;;;;;;;4.35;100.00;101063.19;5012282;28;20484;-72
2022/03/01 08:24:13;;;;;;;11.25;9.10;;;;;;;3.86;100.00;101041.47;5011181;28;20053;-71
2022/03/01 08:26:38;;;;;;;11.23;9.52;;;;;;;4.08;100.00;101035.91;5012273;28;20060;-71
2022/03/01 08:29:04;;;;;;;10.40;8.70;;;;;;;3.96;100.00;101070.94;5012268;28;20037;-71
2022/03/01 08:31:29;;;;;;;13.32;9.23;;;;;;;4.16;100.00;101036.06;5012010;28;20404;-69
2022/03/01 08:33:58;;;;;;;13.13;9.88;;;;;;;4.01;100.00;101030.78;5011450;28;20026;-71
2022/03/01 08:36:24;;;;;;;12.02;9.25;;;;;;;4.59;100.00;101061.00;5006821;28;20035;-71
2022/03/01 08:38:50;;;;;;;12.02;8.93;;;;;;;4.29;100.00;101050.50;4991180;28;20029;-71
2022/03/01 08:41:15;;;;;;;11.38;9.23;;;;;;;4.29;100.00;101025.34;4992290;28;20484;-71
2022/03/01 08:43:41;;;;;;;13.48;9.25;;;;;;;4.31;100.00;101061.44;4992855;28;20035;-72
2022/03/01 08:46:13;;;;;;;12.82;9.93;;;;;;;4.32;100.00;101061.44;5009490;28;20036;-68
2022/03/01 08:48:39;;;;;;;11.88;9.05;;;;;;;4.32;100.00;101053.03;5012176;28;20030;-71
2022/03/01 08:51:06;;;;;;;13.73;9.02;;;;;;;4.34;100.00;101058.94;4998663;28;20481;-71
2022/03/01 08:53:32;;;;;;;10.95;8.95;;;;;;;4.53;100.00;101057.56;4992183;28;20117;-71
2022/03/01 08:55:58;;;;;;;12.02;9.07;;;;;;;4.34;100.00;101057.28;4992308;28;20412;-71
2022/03/01 08:58:24;;;;;;;11.23;8.68;;;;;;;4.23;100.00;101073.06;4992431;28;20066;-71
2022/03/01 09:00:51;;;;;;;10.50;8.73;;;;;;;4.35;100.00;101055.63;4992256;28;20517;-70
2022/03/01 09:03:16;;;;;;;11.63;8.82;;;;;;;4.19;100.00;101053.69;4992116;28;20073;-71
2022/03/01 09:05:42;;;;;;;10.85;9.10;;;;;;;4.38;100.00;101065.72;4992283;28;20069;-71
2022/03/01 09:08:09;;;;;;;12.57;9.43;;;;;;;4.39;100.00;101067.44;5004371;28;20030;-69
2022/03/01 09:10:35;;;;;;;11.38;8.88;;;;;;;4.19;100.00;101036.94;5002779;28;20134;-71
2022/03/01 09:13:00;;;;;;;11.48;8.70;;;;;;;4.37;100.00;101059.00;4994616;28;20041;-71
2022/03/01 09:15:30;;;;;;;13.13;9.57;;;;;;;4.49;100.00;101059.19;5011711;28;20411;-71
2022/03/01 09:17:57;;;;;;;15.57;10.23;;;;;;;4.29;100.00;100990.09;5003207;28;20121;-71
2022/03/01 09:20:23;;;;;;;12.52;9.50;;;;;;;4.80;100.00;101027.69;4991872;28;20481;-70
2022/03/01 09:22:50;;;;;;;25.73;13.23;;;;;;;4.50;100.00;101033.16;4991504;28;20033;-68
2022/03/01 09:25:15;;;;;;;22.17;12.85;;;;;;;4.05;100.00;101009.88;4991990;28;20038;-69
2022/03/01 09:27:41;;;;;;;45.22;19.75;;;;;;;4.53;100.00;101024.81;4992592;28;20034;-70
2022/03/01 09:30:08;;;;;;;31.85;16.02;;;;;;;4.17;100.00;101036.06;5011495;28;20084;-70
2022/03/01 09:32:34;;;;;;;32.88;16.15;;;;;;;5.05;100.00;101063.25;5011567;28;20044;-71
2022/03/01 09:34:59;;;;;;;15.68;10.80;;;;;;;4.97;100.00;101064.84;5011244;28;20033;-70
2022/03/01 09:37:25;;;;;;;11.80;9.07;;;;;;;4.50;100.00;101018.06;5011088;28;20037;-70
2022/03/01 09:39:50;;;;;;;72.32;33.60;;;;;;;4.95;100.00;101055.59;5011388;28;20044;-71
2022/03/01 09:42:17;;;;;;;29.90;17.60;;;;;;;4.93;100.00;101025.31;5010832;28;20496;-71
2022/03/01 09:44:42;;;;;;;22.10;16.80;;;;;;;4.36;100.00;101062.34;5011032;28;20412;-71
2022/03/01 09:47:08;;;;;;;20.65;16.00;;;;;;;4.62;100.00;101062.69;5011249;28;20032;-70
2022/03/01 09:49:33;;;;;;;23.95;14.40;;;;;;;4.44;100.00;101030.56;5010844;28;20041;-70
2022/03/01 09:51:59;;;;;;;46.25;25.38;;;;;;;4.59;100.00;101052.59;5003479;28;20551;-70
2022/03/01 09:54:24;;;;;;;51.00;26.80;;;;;;;4.06;100.00;101014.09;4995500;28;20129;-71
2022/03/01 09:56:50;;;;;;;32.10;18.83;;;;;;;4.23;100.00;101047.88;4995507;28;20499;-71
2022/03/01 09:59:16;;;;;;;15.57;11.75;;;;;;;4.28;100.00;101072.28;5006014;28;20028;-71
2022/03/01 10:01:49;;;;;;;24.55;15.23;;;;;;;4.32;100.00;101066.47;5014548;28;20419;-70
2022/03/01 10:04:15;;;;;;;14.95;11.20;;;;;;;4.90;100.00;101058.03;5014863;28;20050;-70
2022/03/01 10:06:42;;;;;;;14.82;10.35;;;;;;;4.76;100.00;101024.28;5014981;28;20052;-70
2022/03/01 10:09:24;;;;;;;12.90;10.98;;;;;;;4.25;100.00;101032.00;5014187;28;20030;-70
2022/03/01 10:11:51;;;;;;;17.65;13.45;;;;;;;4.53;100.00;101052.50;5014717;28;20120;-70
2022/03/01 10:14:28;;;;;;;21.13;14.43;;;;;;;4.86;100.00;101053.78;5004090;28;20042;-71
2022/03/01 10:16:54;;;;;;;20.00;14.10;;;;;;;4.50;100.00;101008.00;5014701;28;20172;-70
2022/03/01 10:19:21;;;;;;;16.40;14.10;;;;;;;4.35;100.00;101022.91;5014614;28;20025;-72
2022/03/01 10:22:02;;;;;;;43.58;32.00;;;;;;;4.97;100.00;101052.25;5014801;28;20030;-71
2022/03/01 10:24:29;;;;;;;23.10;16.27;;;;;;;4.36;100.00;101047.22;5015114;28;20033;-72
2022/03/01 10:26:59;;;;;;;30.55;23.73;;;;;;;4.64;100.00;101043.41;5014962;28;20041;-71
2022/03/01 10:29:28;;;;;;;18.67;15.00;;;;;;;4.53;100.00;100982.03;5006691;28;20121;-70
2022/03/01 10:32:09;;;;;;;33.58;23.67;;;;;;;4.66;100.00;101039.25;4995134;28;20034;-72
2022/03/01 10:34:35;;;;;;;23.15;16.30;;;;;;;4.87;100.00;101039.53;4994073;28;20082;-71
2022/03/01 10:37:00;;;;;;;34.83;25.77;;;;;;;4.52;100.00;101003.81;4993954;28;20619;-72
2022/03/01 10:39:28;;;;;;;15.93;12.00;;;;;;;4.45;100.00;101051.56;4995171;28;20058;-71
2022/03/01 10:41:54;;;;;;;10.57;8.40;;;;;;;4.12;100.00;101042.69;4994700;28;20500;-71
2022/03/01 10:44:25;;;;;;;14.18;9.60;;;;;;;4.10;100.00;101048.53;4994484;28;20050;-70
2022/03/01 10:47:02;;;;;;;12.35;8.50;;;;;;;4.17;100.00;101051.16;4994703;28;20035;-70
2022/03/01 10:49:34;;;;;;;13.45;8.68;;;;;;;4.20;100.00;101035.25;4994760;28;20026;-71
2022/03/01 10:52:05;;;;;;;12.73;9.35;;;;;;;4.30;100.00;101042.97;4994295;28;20042;-71
2022/03/01 10:54:41;;;;;;;10.65;7.13;;;;;;;4.18;100.00;101026.88;4993809;28;20026;-70
2022/03/01 10:57:11;;;;;;;10.25;8.68;;;;;;;3.90;100.00;100972.75;4994494;28;20030;-71
2022/03/01 10:59:38;;;;;;;18.55;11.70;;;;;;;4.38;100.00;101028.81;4994728;28;20054;-71
2022/03/01 11:02:05;;;;;;;11.65;9.13;;;;;;;3.91;100.00;100994.59;4994576;28;20022;-71
2022/03/01 11:04:31;;;;;;;21.55;13.82;;;;;;;4.15;100.00;100987.41;4994064;28;20034;-71
2022/03/01 11:06:59;;;;;;;16.02;11.65;;;;;;;4.16;100.00;100983.22;4994440;28;20034;-72
2022/03/01 11:09:27;;;;;;;14.20;10.70;;;;;;;4.31;100.00;101017.00;4993221;28;20438;-72
2022/03/01 11:11:54;;;;;;;16.05;10.95;;;;;;;4.57;100.00;101012.31;4994491;28;20034;-71